Rome, Georgia
Current Conditions -  °F | °C
As of 9:31 AM on Sunday 23 Nov 2014 (Local Time) from KRMG Reporting Station
Light Rain Light Rain  
Wind Chill: 50°   Ceiling: 900
Heat Index: 50°   Visibility: 3mi
Dew Point: 49°   Wind: 6mph
Humidity: 96%   Direction: 110°ESE
Pressure: 29.96"   Gusts: NA
Location:  34.25°N, 85.17°W
Report Text: KRMG 231431Z AUTO 11005KT 3SM -RA BR OVC009 10/09 A2996 RMK AO2 RAB1357 CIG 005V013 P0022 T01000094
Loading
Personal Weather Stations






























Interactive Weather Map New forecast layout! Learn more

10-Day Weather Forecast

Advertisements
Track Severe Weather on mobile